Elgin, IL (60120)

5:05 AM CDT en Octubre 23, 2014 (GMT -0500)
Wing Park | Change Station
CLOSE
Current Station
Estación meteorológica personal
Location: Elgin, IL
Altura: 810 ft
Estaciones meteorológicas cercanas

Alt 810 ft 42.05 °N, 88.30 °W | Updated 5 minutes ago

Despejado
Despejado
32.5 ° F
Sensación térmica 32 ° F
N
0.0
Viento Variable Viento desde Oeste
Gusts 0.0 mph

Hoy
Alta -- | Baja -- ° F
--% Posibilidad de precipitaciones
Ayer
Alta -- | Baja -- ° F
Precip. -- pul
7:14 AM 5:59 PM
Creciente menguante, 0% visible
Presión 30.22 pul
Visibilidad 7.0 Millas
Nubes Despejado
Vientos helados 32 ° F
Punto de rocío 30 ° F
Humedad 89%
Precipitaciones 0.00 pul
Espesor de la nieve No disponible.
UV 0.0 de una escala de 12
Polen .30 de una escala de 12
Ozono Buena
PM2.5 Moderada
Flu Activity No Activity
METAR KDPA 230952Z 17005KT 7SM CLR 02/01 A3021 RMK AO2 SLP234 T00220011

More Conditions Fewer Conditions

Presión 30.22 pul
Visibilidad 7.0 Millas
Nubes Despejado
Vientos helados 32 ° F
Punto de rocío 30 ° F
Humedad 89%
Precipitaciones 0.00 pul
Espesor de la nieve No disponible.
UV 0.0 de una escala de 12
Polen .30 de una escala de 12
Ozono Buena
PM2.5 Moderada
Flu Activity No Activity
METAR KDPA 230952Z 17005KT 7SM CLR 02/01 A3021 RMK AO2 SLP234 T00220011

More Conditions Fewer Conditions

10-Day Weather Forecast

Almanac

Astronomía

Oct. 23, 2014 Salida Puesta
Hora real 7:14 AM CDT 5:59 PM CDT
Crepúsculo civil 6:46 AM CDT 6:27 PM CDT
Crepúsculo náutico 6:13 AM CDT 7:00 PM CDT
Crepúsculo astronómico 5:41 AM CDT 7:32 PM CDT
Luna 6:53 AM CDT 6:00 PM CDT
Horas de luz 11h 41m
Horas de luz
10h 44m
Tomorrow will be 2m 39s shorter.
Creciente menguante, 0% of the Moon is Illuminated
Hoy
Creciente menguante
Oct 23
Nueva
Oct 30
Cuarto creciente
Nov 6
Luna llena
Nov 14
Cuarto menguante

Extremos de hoy

Máximos del estado Bajos del estado

Community

WunderPhotos

Upload Photos

1,764,201 ¡fotos cargadas!

Nearby

Calidad del aire

  Calidad del aire Índice AQ Contaminante
Ayer Buena
PM2.5
Ayer Buena
OZONE
Real Moderada
PM2.5
Real Buena
OZONE
Jueves Moderada
PM2.5
Viernes Buena
PM2.5
Sábado Moderada
PM2.5
Domingo Moderada
PM2.5

Grosos de nieve

Estación Profundido Altura
No tenemos constancia de nieve nueva.

Actividad de terremotos

Ciudad Distance Mag. Tiempo y dato
No hay informes recientes de la actividad sísmica.
Magnitud mínima muestra es 2,5.

Temperaturas de aguas costeras

Lugar Temperatura
Sin partes meteorológicos de las estaciones

Estaciones meteorológicas cercanas